Sky Ranch, South Dakota
Current Conditions -  °F | °C
As of 3:51 PM on Wednesday 26 Nov 2014 (Local Time) from KBHK Reporting Station
Overcast Overcast  
Wind Chill: 13°   Ceiling: 9500
Heat Index: 21°   Visibility: 10mi
Dew Point: 16°   Wind: 6mph
Humidity: 81%   Direction: 110°ESE
Pressure: 30.28"   Gusts: NA
Location:  45.6592°N, 103.944°W
Report Text: KBHK 262251Z AUTO 11005KT 10SM FEW075 OVC095 M06/M09 A3028 RMK AO2 SLP294 T10611089
Loading
Personal Weather Stations






























Interactive Weather Map New forecast layout! Learn more

10-Day Weather Forecast

Advertisements
Track Severe Weather on mobile